Time;durP1;ratioP1;P1;durP2;ratioP2;P2;SDS_P1;SDS_P2;PMS_P1;PMS_P2;Temp;Humidity;BMP_temperature;BMP_pressure;BME280_temperature;BME280_humidity;BME280_pressure;Samples;Min_cycle;Max_cycle;Signal;HPM_P1;HPM_P2
2022/05/15 00:01:47;;;;;;;8.00;4.95;;;;;;;;;;5108560;28;20209;-69
2022/05/15 00:04:14;;;;;;;4.93;4.50;;;;;;;;;;5108347;28;20204;-69
2022/05/15 00:06:40;;;;;;;9.18;5.05;;;;;;;;;;5108366;28;20219;-69
2022/05/15 00:09:06;;;;;;;4.50;4.22;;;;;;;;;;5108689;28;20200;-69
2022/05/15 00:11:33;;;;;;;4.85;4.32;;;;;;;;;;5108559;28;20199;-69
2022/05/15 00:14:02;;;;;;;3.85;3.47;;;;;;;;;;5108553;28;20196;-69
2022/05/15 00:16:30;;;;;;;3.75;3.53;;;;;;;;;;5108253;28;20195;-69
2022/05/15 00:18:57;;;;;;;4.05;3.10;;;;;;;;;;5108317;28;20203;-69
2022/05/15 00:21:23;;;;;;;4.05;3.50;;;;;;;;;;5108577;28;20195;-69
2022/05/15 00:23:49;;;;;;;3.22;3.00;;;;;;;;;;5108386;28;20204;-69
2022/05/15 00:26:16;;;;;;;4.03;3.00;;;;;;;;;;5108138;28;20200;-69
2022/05/15 00:28:42;;;;;;;3.67;3.38;;;;;;;;;;5108294;28;20526;-69
2022/05/15 00:31:09;;;;;;;3.88;3.58;;;;;;;;;;5104630;28;20195;-69
2022/05/15 00:33:36;;;;;;;4.78;3.53;;;;;;;;;;5104975;28;20196;-69
2022/05/15 00:36:03;;;;;;;4.38;3.97;;;;;;;;;;5104896;28;20487;-69
2022/05/15 00:38:29;;;;;;;5.95;4.32;;;;;;;;;;5104781;28;20196;-69
2022/05/15 00:40:56;;;;;;;4.88;3.95;;;;;;;;;;5105261;28;20253;-69
2022/05/15 00:43:40;;;;;;;5.75;3.67;;;;;;;;;;5104861;28;20287;-69
2022/05/15 00:46:08;;;;;;;3.88;3.55;;;;;;;;;;5104559;28;20200;-69
2022/05/15 00:48:35;;;;;;;6.38;3.83;;;;;;;;;;5104673;28;20200;-69
2022/05/15 00:51:04;;;;;;;8.05;3.85;;;;;;;;;;5104876;28;20207;-69
2022/05/15 00:53:31;;;;;;;4.75;3.38;;;;;;;;;;5104849;28;20237;-69
2022/05/15 00:55:59;;;;;;;4.15;2.83;;;;;;;;;;5104485;28;20394;-69
2022/05/15 00:58:30;;;;;;;3.20;3.00;;;;;;;;;;5104648;28;20203;-69
2022/05/15 01:00:56;;;;;;;3.42;3.08;;;;;;;;;;5104838;28;20411;-69
2022/05/15 01:03:23;;;;;;;3.10;2.75;;;;;;;;;;5104652;28;20222;-69
2022/05/15 01:05:51;;;;;;;3.40;2.35;;;;;;;;;;5104393;28;20219;-69
2022/05/15 01:08:18;;;;;;;3.30;2.47;;;;;;;;;;5104389;28;20195;-69
2022/05/15 01:10:45;;;;;;;3.28;2.92;;;;;;;;;;5104345;28;20389;-69
2022/05/15 01:13:12;;;;;;;5.38;3.00;;;;;;;;;;5104764;28;20199;-69
2022/05/15 01:15:39;;;;;;;4.22;3.78;;;;;;;;;;5104177;28;20214;-69
2022/05/15 01:18:05;;;;;;;4.10;3.80;;;;;;;;;;5104163;28;20232;-69
2022/05/15 01:20:32;;;;;;;3.83;3.50;;;;;;;;;;5104337;28;20503;-69
2022/05/15 01:23:00;;;;;;;4.55;3.92;;;;;;;;;;5104059;28;20402;-69
2022/05/15 01:25:27;;;;;;;4.63;4.20;;;;;;;;;;5103406;28;20564;-69
2022/05/15 01:27:56;;;;;;;5.85;3.58;;;;;;;;;;5103978;28;20302;-69
2022/05/15 01:30:23;;;;;;;3.40;2.90;;;;;;;;;;5104058;28;20233;-69
2022/05/15 01:32:49;;;;;;;4.55;2.95;;;;;;;;;;5104037;28;20192;-69
2022/05/15 01:35:16;;;;;;;2.55;2.40;;;;;;;;;;5103884;28;20534;-69
2022/05/15 01:37:42;;;;;;;3.22;2.60;;;;;;;;;;5103761;28;20241;-69
2022/05/15 01:40:10;;;;;;;5.40;2.65;;;;;;;;;;5103943;28;20241;-69
2022/05/15 01:42:37;;;;;;;8.93;2.60;;;;;;;;;;5103715;28;20216;-69
2022/05/15 01:45:03;;;;;;;2.38;2.28;;;;;;;;;;5103653;28;20196;-69
2022/05/15 01:47:30;;;;;;;2.85;2.55;;;;;;;;;;5103502;28;20196;-69
2022/05/15 01:49:56;;;;;;;4.00;3.13;;;;;;;;;;5103742;28;20218;-69
2022/05/15 01:52:22;;;;;;;3.15;2.80;;;;;;;;;;5103541;28;20199;-69
2022/05/15 01:54:48;;;;;;;4.28;2.83;;;;;;;;;;5103620;28;20196;-69
2022/05/15 01:57:16;;;;;;;2.97;2.78;;;;;;;;;;5103543;28;20502;-69
2022/05/15 01:59:42;;;;;;;3.20;3.00;;;;;;;;;;5103608;28;20565;-69
2022/05/15 02:02:09;;;;;;;3.55;2.97;;;;;;;;;;5103102;28;20318;-69
2022/05/15 02:04:35;;;;;;;4.68;2.83;;;;;;;;;;5103434;28;20200;-69
2022/05/15 02:07:01;;;;;;;3.38;2.78;;;;;;;;;;5102969;28;20421;-69
2022/05/15 02:09:28;;;;;;;2.75;2.40;;;;;;;;;;5103578;28;20195;-69
2022/05/15 02:11:54;;;;;;;2.25;2.10;;;;;;;;;;5103169;28;20195;-69
2022/05/15 02:14:22;;;;;;;3.85;2.15;;;;;;;;;;5103423;28;20217;-69
2022/05/15 02:16:48;;;;;;;5.10;2.30;;;;;;;;;;5102777;28;20196;-69
2022/05/15 02:19:14;;;;;;;3.80;2.45;;;;;;;;;;5103026;28;20195;-69
2022/05/15 02:21:41;;;;;;;4.93;2.40;;;;;;;;;;5102961;28;20301;-69
2022/05/15 02:24:08;;;;;;;2.58;2.30;;;;;;;;;;5102940;28;20222;-69
2022/05/15 02:26:34;;;;;;;4.47;2.75;;;;;;;;;;5103165;28;20510;-69
2022/05/15 02:29:01;;;;;;;2.72;2.53;;;;;;;;;;5103156;28;20196;-69
2022/05/15 02:31:28;;;;;;;3.15;2.28;;;;;;;;;;5103375;28;20196;-69
2022/05/15 02:33:55;;;;;;;3.00;2.80;;;;;;;;;;5102753;28;20199;-69
2022/05/15 02:36:21;;;;;;;2.20;2.10;;;;;;;;;;5102827;28;20231;-69
2022/05/15 02:38:47;;;;;;;3.38;2.10;;;;;;;;;;5102914;28;20519;-69
2022/05/15 02:41:14;;;;;;;2.78;2.58;;;;;;;;;;5102925;28;20434;-69
2022/05/15 02:43:40;;;;;;;3.50;2.10;;;;;;;;;;5102681;28;20215;-69
2022/05/15 02:46:06;;;;;;;2.80;2.40;;;;;;;;;;5102532;28;20222;-69
2022/05/15 02:51:18;;;;;;;2.30;2.20;;;;;;;;;;5102575;28;20387;-69
2022/05/15 02:53:45;;;;;;;2.88;2.20;;;;;;;;;;5101968;28;20219;-69
2022/05/15 02:56:12;;;;;;;2.78;2.55;;;;;;;;;;5102215;28;20217;-69
2022/05/15 02:58:38;;;;;;;2.45;2.25;;;;;;;;;;5102944;28;20673;-69
2022/05/15 03:01:05;;;;;;;2.63;2.53;;;;;;;;;;5102859;28;20195;-69
2022/05/15 03:03:31;;;;;;;2.88;2.33;;;;;;;;;;5102415;28;20216;-69
2022/05/15 03:05:59;;;;;;;3.90;1.98;;;;;;;;;;5102106;28;20215;-69
2022/05/15 03:08:25;;;;;;;4.32;2.28;;;;;;;;;;5102418;28;20218;-69
2022/05/15 03:10:52;;;;;;;3.47;2.70;;;;;;;;;;5102340;28;20203;-69
2022/05/15 03:13:18;;;;;;;2.35;2.25;;;;;;;;;;5102731;28;20450;-69
2022/05/15 03:15:45;;;;;;;2.22;2.13;;;;;;;;;;5102216;28;20196;-69
2022/05/15 03:18:11;;;;;;;4.35;2.72;;;;;;;;;;5101884;28;20203;-69
2022/05/15 03:20:37;;;;;;;6.90;2.50;;;;;;;;;;5102570;28;20195;-69
2022/05/15 03:23:05;;;;;;;2.50;2.35;;;;;;;;;;5102230;28;20212;-69
2022/05/15 03:25:33;;;;;;;4.40;2.72;;;;;;;;;;5102257;28;20519;-69
2022/05/15 03:27:59;;;;;;;2.13;2.03;;;;;;;;;;5101823;28;20196;-69
2022/05/15 03:30:26;;;;;;;2.65;2.15;;;;;;;;;;5102006;28;20429;-69
2022/05/15 03:32:52;;;;;;;2.35;2.15;;;;;;;;;;5102065;28;20192;-69
2022/05/15 03:35:18;;;;;;;3.13;2.40;;;;;;;;;;5102497;28;20286;-69
2022/05/15 03:37:45;;;;;;;5.38;2.42;;;;;;;;;;5101775;28;20241;-69
2022/05/15 03:40:15;;;;;;;2.30;2.20;;;;;;;;;;5102046;28;20196;-67
2022/05/15 03:42:42;;;;;;;2.65;2.20;;;;;;;;;;5101812;28;20238;-69
2022/05/15 03:45:08;;;;;;;2.60;2.40;;;;;;;;;;5102074;28;20196;-69
2022/05/15 03:47:36;;;;;;;2.45;2.30;;;;;;;;;;5101871;28;20200;-69
2022/05/15 03:50:03;;;;;;;2.83;2.45;;;;;;;;;;5102115;28;20440;-69
2022/05/15 03:52:30;;;;;;;4.75;2.67;;;;;;;;;;5101849;28;20241;-69
2022/05/15 03:54:56;;;;;;;2.65;2.17;;;;;;;;;;5101972;28;20202;-69
2022/05/15 03:57:24;;;;;;;2.42;2.28;;;;;;;;;;5101523;28;20203;-69
2022/05/15 03:59:50;;;;;;;3.85;2.30;;;;;;;;;;5101802;28;20204;-69
2022/05/15 04:02:16;;;;;;;6.50;2.20;;;;;;;;;;5101878;28;20282;-69
2022/05/15 04:04:43;;;;;;;5.45;2.60;;;;;;;;;;5101751;28;20562;-69
2022/05/15 04:07:09;;;;;;;2.25;2.05;;;;;;;;;;5105759;28;20231;-69
2022/05/15 04:09:38;;;;;;;3.05;2.35;;;;;;;;;;5105609;28;20220;-69
2022/05/15 04:12:04;;;;;;;3.00;2.25;;;;;;;;;;5105555;28;20439;-69
2022/05/15 04:14:32;;;;;;;6.22;2.13;;;;;;;;;;5105419;28;20391;-69
2022/05/15 04:16:58;;;;;;;3.78;2.33;;;;;;;;;;5105424;28;20200;-69
2022/05/15 04:19:24;;;;;;;2.25;2.20;;;;;;;;;;5105407;28;20241;-69
2022/05/15 04:21:51;;;;;;;5.53;2.28;;;;;;;;;;5105431;28;20203;-69
2022/05/15 04:24:18;;;;;;;2.90;2.70;;;;;;;;;;5105188;28;20295;-69
2022/05/15 04:26:46;;;;;;;2.92;2.67;;;;;;;;;;5104941;28;20264;-67
2022/05/15 04:29:13;;;;;;;2.78;2.20;;;;;;;;;;5104950;28;20266;-67
2022/05/15 04:31:40;;;;;;;2.00;2.00;;;;;;;;;;5105382;28;20665;-67
2022/05/15 04:34:07;;;;;;;2.90;2.63;;;;;;;;;;5105128;28;20257;-69
2022/05/15 04:36:33;;;;;;;5.45;2.60;;;;;;;;;;5104829;28;20413;-69
2022/05/15 04:39:01;;;;;;;3.35;2.35;;;;;;;;;;5104925;28;20196;-69
2022/05/15 04:41:27;;;;;;;2.58;2.47;;;;;;;;;;5105254;28;20268;-69
2022/05/15 04:43:54;;;;;;;3.50;2.00;;;;;;;;;;5105895;28;20230;-70
2022/05/15 04:46:22;;;;;;;2.50;2.40;;;;;;;;;;5104717;28;20195;-69
2022/05/15 04:48:49;;;;;;;2.38;2.28;;;;;;;;;;5104851;28;20550;-69
2022/05/15 04:51:16;;;;;;;2.55;2.13;;;;;;;;;;5105211;28;20199;-69
2022/05/15 04:53:42;;;;;;;2.45;2.35;;;;;;;;;;5104627;28;20195;-69
2022/05/15 04:56:08;;;;;;;2.47;2.28;;;;;;;;;;5104886;28;20212;-69
2022/05/15 04:58:35;;;;;;;3.33;2.28;;;;;;;;;;5104949;28;20195;-69
2022/05/15 05:01:01;;;;;;;2.33;2.22;;;;;;;;;;5104606;28;20545;-69
2022/05/15 05:03:27;;;;;;;4.43;2.70;;;;;;;;;;5104504;28;20216;-69
2022/05/15 05:05:56;;;;;;;3.50;2.72;;;;;;;;;;5104375;28;20239;-69
2022/05/15 05:08:22;;;;;;;3.45;3.00;;;;;;;;;;5104644;28;20207;-69
2022/05/15 05:10:49;;;;;;;2.95;2.72;;;;;;;;;;5104302;28;20203;-69
2022/05/15 05:13:15;;;;;;;2.40;2.30;;;;;;;;;;5104352;28;20199;-69
2022/05/15 05:15:41;;;;;;;2.75;2.55;;;;;;;;;;5104103;28;20249;-69
2022/05/15 05:18:08;;;;;;;2.75;2.58;;;;;;;;;;5104038;28;20320;-69
2022/05/15 05:20:34;;;;;;;2.70;2.55;;;;;;;;;;5104273;28;20200;-69
2022/05/15 05:23:02;;;;;;;7.45;3.03;;;;;;;;;;5104329;28;20246;-69
2022/05/15 05:25:28;;;;;;;3.63;2.75;;;;;;;;;;5104113;28;20203;-69
2022/05/15 05:27:54;;;;;;;4.18;2.80;;;;;;;;;;5103964;28;20202;-69
2022/05/15 05:30:22;;;;;;;3.72;2.92;;;;;;;;;;5104147;28;20506;-69
2022/05/15 05:32:49;;;;;;;2.90;2.70;;;;;;;;;;5104063;28;20426;-69
2022/05/15 05:35:16;;;;;;;3.17;2.85;;;;;;;;;;5103720;28;20199;-69
2022/05/15 05:37:42;;;;;;;2.83;2.72;;;;;;;;;;5103872;28;20199;-69
2022/05/15 05:40:10;;;;;;;3.00;2.70;;;;;;;;;;5104049;28;20207;-69
2022/05/15 05:42:37;;;;;;;3.40;3.20;;;;;;;;;;5103672;28;20221;-69
2022/05/15 05:45:03;;;;;;;4.10;3.13;;;;;;;;;;5103823;28;20406;-69
2022/05/15 05:47:30;;;;;;;3.80;3.05;;;;;;;;;;5103332;28;20196;-69
2022/05/15 05:49:57;;;;;;;5.68;4.80;;;;;;;;;;5103763;28;20202;-70
2022/05/15 05:52:24;;;;;;;5.32;3.15;;;;;;;;;;5103897;28;20200;-69
2022/05/15 05:54:50;;;;;;;6.00;3.63;;;;;;;;;;5103951;28;20417;-69
2022/05/15 05:57:18;;;;;;;3.97;3.28;;;;;;;;;;5103402;28;20211;-69
2022/05/15 05:59:44;;;;;;;3.97;3.58;;;;;;;;;;5103651;28;20499;-69
2022/05/15 06:02:11;;;;;;;4.32;3.00;;;;;;;;;;5103442;28;20196;-69
2022/05/15 06:04:39;;;;;;;4.70;3.20;;;;;;;;;;5103466;28;20433;-69
2022/05/15 06:07:05;;;;;;;3.42;3.22;;;;;;;;;;5103333;28;20192;-69
2022/05/15 06:09:32;;;;;;;5.22;3.78;;;;;;;;;;5103457;28;20192;-69
2022/05/15 06:11:58;;;;;;;4.82;4.32;;;;;;;;;;5103803;28;20348;-69
2022/05/15 06:14:26;;;;;;;4.07;3.25;;;;;;;;;;5103166;28;20192;-69
2022/05/15 06:16:52;;;;;;;4.60;3.53;;;;;;;;;;5102909;28;20550;-69
2022/05/15 06:19:18;;;;;;;4.80;3.17;;;;;;;;;;5103183;28;20520;-69
2022/05/15 06:21:45;;;;;;;6.38;3.13;;;;;;;;;;5103323;28;20496;-69
2022/05/15 06:24:11;;;;;;;7.22;2.97;;;;;;;;;;5103064;28;20227;-69
2022/05/15 06:26:37;;;;;;;3.83;2.83;;;;;;;;;;5102956;28;20200;-69
2022/05/15 06:29:03;;;;;;;4.55;3.13;;;;;;;;;;5102303;28;20196;-69
2022/05/15 06:31:31;;;;;;;2.92;2.83;;;;;;;;;;5103515;28;20202;-69
2022/05/15 06:33:57;;;;;;;4.25;2.90;;;;;;;;;;5102843;28;20196;-69
2022/05/15 06:36:23;;;;;;;9.15;3.17;;;;;;;;;;5102702;28;20203;-69
2022/05/15 06:38:50;;;;;;;3.35;3.00;;;;;;;;;;5103109;28;20392;-69
2022/05/15 06:41:17;;;;;;;3.72;3.35;;;;;;;;;;5102867;28;20200;-69
2022/05/15 06:43:43;;;;;;;3.50;3.20;;;;;;;;;;5102923;28;20482;-69
2022/05/15 06:46:10;;;;;;;3.63;3.25;;;;;;;;;;5102499;28;20200;-69
2022/05/15 06:48:39;;;;;;;3.35;3.05;;;;;;;;;;5102970;28;20518;-69
2022/05/15 06:51:05;;;;;;;4.95;3.33;;;;;;;;;;5102809;28;20266;-69
2022/05/15 06:53:32;;;;;;;4.15;3.00;;;;;;;;;;5102856;28;20196;-69
2022/05/15 06:58:42;;;;;;;3.38;3.17;;;;;;;;;;5102316;28;20222;-69
2022/05/15 07:01:08;;;;;;;4.72;2.88;;;;;;;;;;5102958;28;20427;-69
2022/05/15 07:03:35;;;;;;;5.25;3.47;;;;;;;;;;5102329;28;20463;-69
2022/05/15 07:06:03;;;;;;;7.57;3.00;;;;;;;;;;5102303;28;20211;-69
2022/05/15 07:08:29;;;;;;;4.28;2.72;;;;;;;;;;5102084;28;20196;-69
2022/05/15 07:10:55;;;;;;;6.55;3.10;;;;;;;;;;5102324;28;20203;-68
2022/05/15 07:13:22;;;;;;;3.22;2.83;;;;;;;;;;5102200;28;20196;-68
2022/05/15 07:15:48;;;;;;;3.88;2.88;;;;;;;;;;5102440;28;20206;-68
2022/05/15 07:18:14;;;;;;;4.82;2.55;;;;;;;;;;5102253;28;20204;-68
2022/05/15 07:20:41;;;;;;;5.53;2.70;;;;;;;;;;5102014;28;20195;-68
2022/05/15 07:23:08;;;;;;;5.97;2.63;;;;;;;;;;5102221;28;20203;-68
2022/05/15 07:25:35;;;;;;;5.32;3.10;;;;;;;;;;5101907;28;20227;-68
2022/05/15 07:28:01;;;;;;;5.50;3.63;;;;;;;;;;5101780;28;20470;-68
2022/05/15 07:30:27;;;;;;;4.88;2.60;;;;;;;;;;5102472;28;20195;-68
2022/05/15 07:32:54;;;;;;;4.53;3.15;;;;;;;;;;5102743;28;20203;-68
2022/05/15 07:35:20;;;;;;;4.85;2.58;;;;;;;;;;5102088;28;20196;-68
2022/05/15 07:37:46;;;;;;;3.97;2.40;;;;;;;;;;5102440;28;20204;-68
2022/05/15 07:40:14;;;;;;;5.07;2.85;;;;;;;;;;5104587;28;20433;-68
2022/05/15 07:42:41;;;;;;;3.25;2.60;;;;;;;;;;5106272;28;20259;-68
2022/05/15 07:45:08;;;;;;;2.80;2.60;;;;;;;;;;5106339;28;20379;-68
2022/05/15 07:47:35;;;;;;;11.77;2.97;;;;;;;;;;5106284;28;20196;-68
2022/05/15 07:50:01;;;;;;;3.90;2.80;;;;;;;;;;5106303;28;20196;-68
2022/05/15 07:52:27;;;;;;;5.95;2.70;;;;;;;;;;5106165;28;20484;-69
2022/05/15 07:54:53;;;;;;;5.18;2.95;;;;;;;;;;5109333;28;20184;-70
2022/05/15 07:57:21;;;;;;;4.63;3.47;;;;;;;;;;5107147;28;20196;-69
2022/05/15 07:59:47;;;;;;;4.55;2.60;;;;;;;;;;5106192;28;20241;-68
2022/05/15 08:02:14;;;;;;;4.50;2.65;;;;;;;;;;5105884;28;20428;-68
2022/05/15 08:10:04;;;;;;;5.43;2.45;;;;;;;;;;5105572;28;20195;-69
2022/05/15 08:12:34;;;;;;;3.83;2.40;;;;;;;;;;5106049;28;20549;-70
2022/05/15 08:15:00;;;;;;;6.65;3.33;;;;;;;;;;5105719;28;20207;-68
2022/05/15 08:17:27;;;;;;;5.40;2.83;;;;;;;;;;5105331;28;20267;-68
2022/05/15 08:25:21;;;;;;;5.05;2.65;;;;;;;;;;5105428;28;20298;-68
2022/05/15 08:27:48;;;;;;;4.43;1.90;;;;;;;;;;5105345;28;20503;-68
2022/05/15 08:30:15;;;;;;;6.60;2.38;;;;;;;;;;5105315;28;20386;-68
2022/05/15 08:32:41;;;;;;;7.32;2.13;;;;;;;;;;5105726;28;20234;-68
2022/05/15 08:35:08;;;;;;;2.33;2.13;;;;;;;;;;5105450;28;20496;-68
2022/05/15 08:37:34;;;;;;;2.67;2.08;;;;;;;;;;5105048;28;20199;-68
2022/05/15 08:40:01;;;;;;;6.53;1.85;;;;;;;;;;5105031;28;20203;-68
2022/05/15 08:42:32;;;;;;;3.35;1.95;;;;;;;;;;5105160;28;20200;-68
2022/05/15 08:45:02;;;;;;;3.00;1.50;;;;;;;;;;5104650;28;20285;-68
2022/05/15 08:47:31;;;;;;;13.18;7.47;;;;;;;;;;5103668;28;20196;-68
2022/05/15 08:49:59;;;;;;;2.67;1.95;;;;;;;;;;5103655;28;20199;-68
2022/05/15 08:52:30;;;;;;;5.32;1.90;;;;;;;;;;5103301;28;20188;-68
2022/05/15 08:54:57;;;;;;;6.82;2.15;;;;;;;;;;5104556;28;20500;-68
2022/05/15 08:57:29;;;;;;;6.78;2.10;;;;;;;;;;5103943;28;20204;-68
2022/05/15 08:59:57;;;;;;;1.38;1.25;;;;;;;;;;5104488;28;20364;-68
2022/05/15 09:02:25;;;;;;;3.97;1.60;;;;;;;;;;5104728;28;20530;-68
2022/05/15 09:04:52;;;;;;;5.88;1.55;;;;;;;;;;5104634;28;20212;-68
2022/05/15 09:07:24;;;;;;;1.40;1.27;;;;;;;;;;5104532;28;20202;-69
2022/05/15 09:09:54;;;;;;;1.80;1.70;;;;;;;;;;5104518;28;20241;-69
2022/05/15 09:12:21;;;;;;;3.50;1.52;;;;;;;;;;5104822;28;20421;-69
2022/05/15 09:14:53;;;;;;;1.80;1.60;;;;;;;;;;5104520;28;20459;-69
2022/05/15 09:17:22;;;;;;;2.80;1.15;;;;;;;;;;5104386;28;20503;-69
2022/05/15 09:19:52;;;;;;;1.30;1.30;;;;;;;;;;5104454;28;20202;-69
2022/05/15 09:22:19;;;;;;;4.57;1.90;;;;;;;;;;5104320;28;20196;-69
2022/05/15 09:24:47;;;;;;;4.97;2.60;;;;;;;;;;5104387;28;20211;-69
2022/05/15 09:27:15;;;;;;;4.85;1.30;;;;;;;;;;5104166;28;20202;-69
2022/05/15 09:29:41;;;;;;;1.90;1.65;;;;;;;;;;5104062;28;20196;-69
2022/05/15 09:32:15;;;;;;;6.35;2.47;;;;;;;;;;5104226;28;20240;-69
2022/05/15 09:34:43;;;;;;;4.20;2.92;;;;;;;;;;5104158;28;20192;-69
2022/05/15 09:40:03;;;;;;;4.30;1.42;;;;;;;;;;5104125;28;20624;-69
2022/05/15 09:45:23;;;;;;;3.13;2.72;;;;;;;;;;5103914;28;20226;-69
2022/05/15 09:48:01;;;;;;;2.30;2.10;;;;;;;;;;5103882;28;20510;-69
2022/05/15 09:50:38;;;;;;;2.80;1.20;;;;;;;;;;5103856;28;20499;-69
2022/05/15 09:53:07;;;;;;;2.83;1.33;;;;;;;;;;5103768;28;20195;-69
2022/05/15 09:55:33;;;;;;;6.35;2.83;;;;;;;;;;5103620;28;20502;-69
2022/05/15 09:58:01;;;;;;;5.63;2.58;;;;;;;;;;5103303;28;20417;-69
2022/05/15 10:00:28;;;;;;;7.20;3.10;;;;;;;;;;5103918;28;20394;-69
2022/05/15 10:03:03;;;;;;;2.75;1.48;;;;;;;;;;5103605;28;20244;-69
2022/05/15 10:05:31;;;;;;;1.95;1.05;;;;;;;;;;5103547;28;20659;-69
2022/05/15 10:08:01;;;;;;;2.03;1.08;;;;;;;;;;5103301;28;20195;-69
2022/05/15 10:10:31;;;;;;;1.67;1.20;;;;;;;;;;5103593;28;20270;-69
2022/05/15 10:13:00;;;;;;;1.05;0.95;;;;;;;;;;5103468;28;20388;-69
2022/05/15 10:15:28;;;;;;;4.13;1.00;;;;;;;;;;5103479;28;20191;-69
2022/05/15 10:17:55;;;;;;;4.45;1.30;;;;;;;;;;5103111;28;20211;-69
2022/05/15 10:20:24;;;;;;;2.55;1.10;;;;;;;;;;5103256;28;20252;-69
2022/05/15 10:22:53;;;;;;;5.00;1.10;;;;;;;;;;5103202;28;20195;-69
2022/05/15 10:25:22;;;;;;;3.55;1.40;;;;;;;;;;5103130;28;20227;-69
2022/05/15 10:27:54;;;;;;;3.28;0.90;;;;;;;;;;5103051;28;20285;-69
2022/05/15 10:30:22;;;;;;;1.73;1.10;;;;;;;;;;5103140;28;20195;-69
2022/05/15 10:32:50;;;;;;;2.22;1.33;;;;;;;;;;5103017;28;20376;-70
2022/05/15 10:35:19;;;;;;;3.55;1.00;;;;;;;;;;5102798;28;20192;-69
2022/05/15 10:37:50;;;;;;;1.55;1.13;;;;;;;;;;5102725;28;20227;-69
2022/05/15 10:40:20;;;;;;;6.68;1.10;;;;;;;;;;5103070;28;20194;-69
2022/05/15 10:42:50;;;;;;;1.65;1.00;;;;;;;;;;5102831;28;20202;-69
2022/05/15 10:45:21;;;;;;;2.58;1.00;;;;;;;;;;5102827;28;20237;-69
2022/05/15 10:47:54;;;;;;;3.58;1.10;;;;;;;;;;5102523;28;20440;-69
2022/05/15 10:50:24;;;;;;;2.35;1.10;;;;;;;;;;5102889;28;20202;-69
2022/05/15 10:57:21;;;;;;;1.80;1.10;;;;;;;;;;5102787;28;20187;-69
2022/05/15 10:58:45;;;;;;;5.47;1.08;;;;;;;;;;5102634;28;20254;-69
2022/05/15 11:01:15;;;;;;;1.23;0.93;;;;;;;;;;5102660;28;20202;-63
2022/05/15 11:03:51;;;;;;;1.75;1.00;;;;;;;;;;5102363;28;20273;-63
2022/05/15 11:06:32;;;;;;;2.58;1.10;;;;;;;;;;5102141;28;20223;-63
2022/05/15 11:09:06;;;;;;;3.65;1.20;;;;;;;;;;5092158;28;20212;-63
2022/05/15 11:11:41;;;;;;;3.00;1.17;;;;;;;;;;5081721;28;20215;-63
2022/05/15 11:14:10;;;;;;;1.10;1.10;;;;;;;;;;5081233;28;20195;-63
2022/05/15 11:16:40;;;;;;;3.10;1.08;;;;;;;;;;5081719;28;20195;-63
2022/05/15 11:19:11;;;;;;;4.53;0.90;;;;;;;;;;5082032;28;20196;-63
2022/05/15 11:21:43;;;;;;;3.67;1.25;;;;;;;;;;5082181;28;20200;-62
2022/05/15 11:24:13;;;;;;;3.00;1.42;;;;;;;;;;5082262;28;20196;-63
2022/05/15 11:26:42;;;;;;;1.65;1.30;;;;;;;;;;5081814;28;20530;-63
2022/05/15 11:29:10;;;;;;;1.83;1.48;;;;;;;;;;5081974;28;20196;-62
2022/05/15 11:31:43;;;;;;;2.72;1.23;;;;;;;;;;5081927;28;20267;-62
2022/05/15 11:34:10;;;;;;;2.60;1.13;;;;;;;;;;5081982;28;20200;-63
2022/05/15 11:36:38;;;;;;;1.00;0.90;;;;;;;;;;5081791;28;20270;-63
2022/05/15 11:39:06;;;;;;;3.47;1.23;;;;;;;;;;5081786;28;20499;-63
2022/05/15 11:42:10;;;;;;;1.42;1.20;;;;;;;;;;5081932;28;20226;-63
2022/05/15 11:44:37;;;;;;;0.95;0.90;;;;;;;;;;5081986;28;20211;-62
2022/05/15 11:47:16;;;;;;;3.40;1.15;;;;;;;;;;5082114;28;20192;-62
2022/05/15 11:49:58;;;;;;;2.28;1.10;;;;;;;;;;5081842;28;20199;-62
2022/05/15 11:52:33;;;;;;;5.18;1.38;;;;;;;;;;5081663;28;20200;-62
2022/05/15 11:54:59;;;;;;;1.42;1.10;;;;;;;;;;5082128;28;20218;-62
2022/05/15 11:57:34;;;;;;;5.97;1.10;;;;;;;;;;5081637;28;20504;-62
2022/05/15 12:00:02;;;;;;;2.58;1.00;;;;;;;;;;5081789;28;20195;-62
2022/05/15 12:02:47;;;;;;;1.90;1.05;;;;;;;;;;5081573;28;20211;-62
2022/05/15 12:05:22;;;;;;;2.53;1.15;;;;;;;;;;5081755;28;20228;-62
2022/05/15 12:07:53;;;;;;;1.33;1.10;;;;;;;;;;5081570;28;20520;-62
2022/05/15 12:10:43;;;;;;;2.28;1.02;;;;;;;;;;5081679;28;20196;-62
2022/05/15 12:13:12;;;;;;;3.53;1.30;;;;;;;;;;5081476;28;20203;-62
2022/05/15 12:15:40;;;;;;;1.45;1.17;;;;;;;;;;5081760;28;20203;-62
2022/05/15 12:18:19;;;;;;;3.60;1.20;;;;;;;;;;5081423;28;20550;-62
2022/05/15 12:20:47;;;;;;;4.57;1.40;;;;;;;;;;5081527;28;20196;-62
2022/05/15 12:23:16;;;;;;;1.05;1.00;;;;;;;;;;5081542;28;20218;-62
2022/05/15 12:25:47;;;;;;;3.25;1.20;;;;;;;;;;5081318;28;20258;-62
2022/05/15 12:31:04;;;;;;;2.70;1.10;;;;;;;;;;5085018;28;20265;-63
2022/05/15 12:33:31;;;;;;;2.25;1.30;;;;;;;;;;5084317;28;20196;-63
2022/05/15 12:35:58;;;;;;;1.20;1.05;;;;;;;;;;5084095;28;20196;-62
2022/05/15 12:38:25;;;;;;;2.58;1.35;;;;;;;;;;5084140;28;20526;-62
2022/05/15 12:40:59;;;;;;;1.10;1.00;;;;;;;;;;5084320;28;20395;-62
2022/05/15 12:43:28;;;;;;;1.08;0.90;;;;;;;;;;5084186;28;20195;-62
2022/05/15 12:45:55;;;;;;;1.30;1.00;;;;;;;;;;5084155;28;20216;-62
2022/05/15 12:48:22;;;;;;;3.45;1.10;;;;;;;;;;5083983;28;20391;-62
2022/05/15 12:50:56;;;;;;;2.10;1.10;;;;;;;;;;5084004;28;20196;-62
2022/05/15 12:53:25;;;;;;;2.55;0.98;;;;;;;;;;5084290;28;20285;-62
2022/05/15 12:55:51;;;;;;;1.60;1.10;;;;;;;;;;5083947;28;20196;-62
2022/05/15 12:58:30;;;;;;;3.30;1.08;;;;;;;;;;5083784;28;20204;-62
2022/05/15 13:00:56;;;;;;;4.00;1.15;;;;;;;;;;5084402;28;20199;-64
2022/05/15 13:03:23;;;;;;;3.83;1.52;;;;;;;;;;5083598;28;20393;-63
2022/05/15 13:05:51;;;;;;;1.30;1.08;;;;;;;;;;5083498;28;20219;-63
2022/05/15 13:08:18;;;;;;;4.35;1.10;;;;;;;;;;5083606;28;20196;-63
2022/05/15 13:10:53;;;;;;;2.75;1.23;;;;;;;;;;5083793;28;20196;-63
2022/05/15 13:13:22;;;;;;;1.10;0.90;;;;;;;;;;5083551;28;20215;-63
2022/05/15 13:15:51;;;;;;;2.90;1.30;;;;;;;;;;5083908;28;20192;-63
2022/05/15 13:18:18;;;;;;;2.03;1.17;;;;;;;;;;5083541;28;20196;-63
2022/05/15 13:20:46;;;;;;;1.35;1.25;;;;;;;;;;5083495;28;20199;-63
2022/05/15 13:23:12;;;;;;;3.45;1.00;;;;;;;;;;5083542;28;20199;-63
2022/05/15 13:25:39;;;;;;;1.52;0.77;;;;;;;;;;5083341;28;20219;-63
2022/05/15 13:28:06;;;;;;;2.58;1.17;;;;;;;;;;5083000;28;20393;-63
2022/05/15 13:30:34;;;;;;;1.58;1.20;;;;;;;;;;5083490;28;20266;-63
2022/05/15 13:33:02;;;;;;;3.25;1.17;;;;;;;;;;5083355;28;20350;-63
2022/05/15 13:35:32;;;;;;;1.92;1.08;;;;;;;;;;5083375;28;20241;-63
2022/05/15 13:38:11;;;;;;;1.20;1.00;;;;;;;;;;5082654;28;20207;-63
2022/05/15 13:43:28;;;;;;;5.47;1.02;;;;;;;;;;5083146;28;20194;-63
2022/05/15 13:45:56;;;;;;;2.67;1.13;;;;;;;;;;5083016;28;20444;-63
2022/05/15 13:48:24;;;;;;;1.33;1.10;;;;;;;;;;5082978;28;20235;-63
2022/05/15 13:50:52;;;;;;;6.18;1.27;;;;;;;;;;5082911;28;20196;-63
2022/05/15 13:53:26;;;;;;;4.68;1.15;;;;;;;;;;5082762;28;20196;-63
2022/05/15 13:55:54;;;;;;;3.95;1.08;;;;;;;;;;5082709;28;20206;-63
2022/05/15 13:58:20;;;;;;;2.10;1.00;;;;;;;;;;5082775;28;20214;-63
2022/05/15 14:01:01;;;;;;;1.83;0.98;;;;;;;;;;5082547;28;20211;-63
2022/05/15 14:03:30;;;;;;;2.90;1.00;;;;;;;;;;5082614;28;20218;-63
2022/05/15 14:06:11;;;;;;;2.65;1.05;;;;;;;;;;5082533;28;20232;-63
2022/05/15 14:08:37;;;;;;;1.10;1.00;;;;;;;;;;5082332;28;20195;-63
2022/05/15 14:11:05;;;;;;;1.60;0.98;;;;;;;;;;5082443;28;20210;-63
2022/05/15 14:13:45;;;;;;;1.83;1.05;;;;;;;;;;5082558;28;20199;-63
2022/05/15 14:16:14;;;;;;;2.75;0.93;;;;;;;;;;5082094;28;20229;-63
2022/05/15 14:18:41;;;;;;;5.72;1.00;;;;;;;;;;5082377;28;20196;-63
2022/05/15 14:21:10;;;;;;;2.75;1.00;;;;;;;;;;5082499;28;20523;-63
2022/05/15 14:23:36;;;;;;;2.92;0.98;;;;;;;;;;5082302;28;20393;-63
2022/05/15 14:26:03;;;;;;;2.00;1.30;;;;;;;;;;5081931;28;20219;-63
2022/05/15 14:28:29;;;;;;;7.28;1.38;;;;;;;;;;5082048;28;20249;-63
2022/05/15 14:30:56;;;;;;;1.58;1.10;;;;;;;;;;5082324;28;20204;-63
2022/05/15 14:33:23;;;;;;;1.63;1.17;;;;;;;;;;5082225;28;20196;-63
2022/05/15 14:35:54;;;;;;;2.58;1.15;;;;;;;;;;5082072;28;20192;-63
2022/05/15 14:38:20;;;;;;;1.08;0.90;;;;;;;;;;5081930;28;20285;-63
2022/05/15 14:40:46;;;;;;;1.10;1.00;;;;;;;;;;5081987;28;20234;-63
2022/05/15 14:43:13;;;;;;;3.15;1.08;;;;;;;;;;5081775;28;20230;-63
2022/05/15 14:45:41;;;;;;;4.50;1.27;;;;;;;;;;5082054;28;20220;-63
2022/05/15 14:48:08;;;;;;;2.88;1.10;;;;;;;;;;5081834;28;20507;-63
2022/05/15 14:50:34;;;;;;;1.05;1.05;;;;;;;;;;5081638;28;20379;-63
2022/05/15 14:53:06;;;;;;;2.92;1.27;;;;;;;;;;5081790;28;20195;-63
2022/05/15 14:58:17;;;;;;;6.72;1.10;;;;;;;;;;5081475;28;20191;-63
2022/05/15 15:00:44;;;;;;;2.28;1.00;;;;;;;;;;5081636;28;20245;-63
2022/05/15 15:03:10;;;;;;;1.55;1.00;;;;;;;;;;5081792;28;20207;-63
2022/05/15 15:05:47;;;;;;;1.95;1.23;;;;;;;;;;5082124;28;20519;-63
2022/05/15 15:08:15;;;;;;;2.35;1.10;;;;;;;;;;5081299;28;20196;-63
2022/05/15 15:10:41;;;;;;;3.60;1.20;;;;;;;;;;5081777;28;20203;-63
2022/05/15 15:13:09;;;;;;;8.13;1.33;;;;;;;;;;5081506;28;20196;-63
2022/05/15 15:15:36;;;;;;;1.02;0.80;;;;;;;;;;5081722;28;20400;-63
2022/05/15 15:18:02;;;;;;;1.42;1.35;;;;;;;;;;5081274;28;20192;-63
2022/05/15 15:20:28;;;;;;;1.77;0.95;;;;;;;;;;5081559;28;20292;-63
2022/05/15 15:22:54;;;;;;;1.25;1.10;;;;;;;;;;5081289;28;20200;-63